createdAt,value
2017-07-04T00:01:00.256Z,43.50
2017-07-04T00:03:28.507Z,43.50
2017-07-04T00:05:57.581Z,44.00
2017-07-04T00:08:25.841Z,43.90
2017-07-04T00:10:54.073Z,44.40
2017-07-04T00:13:23.086Z,45.00
2017-07-04T00:15:51.382Z,45.00
2017-07-04T00:18:19.633Z,45.10
2017-07-04T00:20:47.869Z,45.40
2017-07-04T00:23:16.932Z,45.90
2017-07-04T00:25:45.223Z,46.00
2017-07-04T00:28:13.453Z,46.30
2017-07-04T00:30:41.878Z,46.40
2017-07-04T00:33:10.145Z,46.60
2017-07-04T00:35:38.385Z,46.70
2017-07-04T00:38:06.694Z,47.00
2017-07-04T00:40:34.995Z,47.00
2017-07-04T00:43:03.233Z,47.20
2017-07-04T00:45:31.468Z,47.20
2017-07-04T00:47:59.753Z,47.30
2017-07-04T00:50:27.990Z,47.50
2017-07-04T00:52:56.317Z,47.50
2017-07-04T00:55:24.597Z,47.70
2017-07-04T00:57:52.986Z,47.90
2017-07-04T01:00:21.241Z,47.90
2017-07-04T01:02:49.479Z,47.80
2017-07-04T01:05:18.562Z,49.20
2017-07-04T01:07:46.797Z,49.20
2017-07-04T01:10:15.049Z,49.50
2017-07-04T01:12:43.293Z,49.10
2017-07-04T01:15:11.621Z,47.70
2017-07-04T01:17:39.926Z,47.50
2017-07-04T01:20:08.284Z,47.90
2017-07-04T01:22:36.564Z,48.20
2017-07-04T01:25:04.808Z,47.70
2017-07-04T01:27:33.041Z,47.80
2017-07-04T01:30:01.394Z,48.20
2017-07-04T01:32:29.616Z,49.10
2017-07-04T01:34:58.636Z,48.20
2017-07-04T01:37:26.919Z,48.20
2017-07-04T01:39:55.226Z,48.30
2017-07-04T01:42:23.573Z,48.60
2017-07-04T01:44:51.853Z,48.20
2017-07-04T01:47:20.165Z,48.00
2017-07-04T01:49:48.445Z,47.90
2017-07-04T01:52:16.680Z,48.10
2017-07-04T01:54:44.985Z,48.40
2017-07-04T01:57:13.242Z,48.40
2017-07-04T01:59:41.473Z,48.70
2017-07-04T02:02:10.595Z,48.50
2017-07-04T02:04:39.310Z,48.50
2017-07-04T02:07:07.562Z,48.20
2017-07-04T02:09:35.789Z,48.90
2017-07-04T02:12:04.809Z,49.30
2017-07-04T02:14:33.049Z,49.20
2017-07-04T02:17:01.290Z,49.10
2017-07-04T02:19:29.529Z,49.20
2017-07-04T02:21:57.880Z,49.30
2017-07-04T02:24:26.881Z,49.30
2017-07-04T02:26:55.903Z,49.40
2017-07-04T02:29:24.201Z,49.40
2017-07-04T02:31:52.453Z,49.60
2017-07-04T02:34:20.685Z,50.10
2017-07-04T02:36:49.716Z,50.60
2017-07-04T02:39:17.948Z,50.60
2017-07-04T02:41:46.207Z,50.30
2017-07-04T02:44:14.443Z,50.70
2017-07-04T02:46:42.681Z,50.60
2017-07-04T02:49:10.961Z,50.60
2017-07-04T02:51:39.285Z,50.50
2017-07-04T02:54:07.561Z,50.50
2017-07-04T02:56:36.624Z,50.40
2017-07-04T02:59:05.657Z,50.90
2017-07-04T03:01:33.961Z,50.90
2017-07-04T03:04:02.211Z,50.80
2017-07-04T03:06:30.441Z,51.20
2017-07-04T03:08:59.467Z,50.70
2017-07-04T03:11:27.709Z,50.60
2017-07-04T03:13:56.836Z,51.30
2017-07-04T03:16:25.159Z,51.30
2017-07-04T03:18:53.402Z,51.30
2017-07-04T03:21:21.637Z,51.50
2017-07-04T03:23:49.945Z,51.40
2017-07-04T03:26:18.222Z,51.40
2017-07-04T03:28:46.597Z,51.60
2017-07-04T03:31:14.830Z,51.70
2017-07-04T03:33:43.855Z,51.90
2017-07-04T03:36:12.105Z,51.90
2017-07-04T03:38:41.121Z,52.10
2017-07-04T03:41:09.416Z,52.10
2017-07-04T03:43:37.793Z,52.10
2017-07-04T03:46:06.030Z,52.20
2017-07-04T03:48:34.330Z,52.30
2017-07-04T03:51:02.587Z,52.30
2017-07-04T03:53:30.894Z,52.50
2017-07-04T03:55:59.164Z,52.80
2017-07-04T03:58:27.470Z,53.00
2017-07-04T04:03:30.435Z,53.20
2017-07-04T04:05:58.686Z,53.20
2017-07-04T04:08:26.918Z,53.50
2017-07-04T04:10:55.217Z,53.30
2017-07-04T04:13:23.502Z,53.40
2017-07-04T04:15:51.811Z,53.70
2017-07-04T04:18:20.125Z,53.60
2017-07-04T04:20:48.373Z,53.80
2017-07-04T04:23:16.645Z,54.30
2017-07-04T04:25:44.921Z,54.10
2017-07-04T04:28:13.181Z,53.90
2017-07-04T04:30:41.469Z,54.10
2017-07-04T04:33:09.777Z,54.30
2017-07-04T04:35:38.021Z,54.40
2017-07-04T04:38:06.317Z,54.20
2017-07-04T04:40:34.557Z,54.40
2017-07-04T04:43:02.906Z,54.70
2017-07-04T04:45:31.941Z,54.80
2017-07-04T04:48:00.197Z,54.80
2017-07-04T04:50:28.455Z,55.00
2017-07-04T04:52:57.565Z,55.30
2017-07-04T04:55:25.859Z,55.20
2017-07-04T04:57:54.098Z,55.90
2017-07-04T05:00:23.111Z,55.60
2017-07-04T05:02:51.364Z,55.60
2017-07-04T05:05:20.543Z,55.80
2017-07-04T05:07:48.850Z,55.70
2017-07-04T05:10:17.094Z,55.30
2017-07-04T05:12:45.433Z,54.60
2017-07-04T05:15:13.673Z,55.30
2017-07-04T05:17:42.751Z,53.10
2017-07-04T05:20:10.973Z,53.10
2017-07-04T05:22:39.225Z,52.20
2017-07-04T05:25:07.990Z,51.10
2017-07-04T05:27:39.182Z,50.90
2017-07-04T05:30:07.861Z,49.90
2017-07-04T05:32:36.120Z,49.60
2017-07-04T05:35:04.418Z,49.00
2017-07-04T05:37:32.717Z,48.30
2017-07-04T05:40:00.958Z,48.30
2017-07-04T05:42:29.297Z,47.40
2017-07-04T05:44:58.308Z,47.40
2017-07-04T05:47:26.599Z,46.80
2017-07-04T05:49:54.898Z,46.50
2017-07-04T05:52:23.152Z,45.80
2017-07-04T05:54:51.418Z,45.50
2017-07-04T05:57:19.685Z,44.60
2017-07-04T05:59:47.936Z,44.80
2017-07-04T06:02:16.176Z,43.90
2017-07-04T06:04:44.644Z,43.30
2017-07-04T06:07:12.893Z,42.70
2017-07-04T06:09:41.180Z,41.30
2017-07-04T06:12:09.482Z,40.60
2017-07-04T06:14:37.745Z,39.80
2017-07-04T06:17:06.029Z,39.00
2017-07-04T06:19:34.402Z,38.50
2017-07-04T06:22:02.829Z,38.20
2017-07-04T06:24:31.065Z,37.20
2017-07-04T06:26:59.313Z,36.50
2017-07-04T06:29:27.583Z,35.90
2017-07-04T06:31:55.843Z,35.40
2017-07-04T06:34:24.858Z,33.40
2017-07-04T06:36:53.110Z,33.40
2017-07-04T06:39:22.186Z,31.80
2017-07-04T06:41:50.420Z,32.30
2017-07-04T06:44:18.691Z,31.60
2017-07-04T06:46:46.936Z,31.90
2017-07-04T06:49:15.461Z,32.10
2017-07-04T06:51:43.697Z,33.30
2017-07-04T06:54:11.957Z,33.90
2017-07-04T06:56:41.000Z,37.20
2017-07-04T06:59:09.376Z,37.30
2017-07-04T07:01:37.657Z,38.60
2017-07-04T07:04:06.019Z,39.70
2017-07-04T07:06:34.337Z,40.50
2017-07-04T07:09:02.673Z,40.80
2017-07-04T07:11:30.929Z,40.70
2017-07-04T07:13:59.169Z,40.90
2017-07-04T07:16:27.547Z,41.30
2017-07-04T07:18:55.765Z,41.10
2017-07-04T07:21:24.045Z,41.10
2017-07-04T07:23:52.305Z,42.10
2017-07-04T07:26:20.575Z,41.30
2017-07-04T07:28:48.878Z,41.80
2017-07-04T07:31:17.142Z,42.30
2017-07-04T07:33:45.784Z,42.80
2017-07-04T07:36:15.495Z,41.90
2017-07-04T07:38:45.813Z,41.50
2017-07-04T07:41:15.942Z,41.50
2017-07-04T07:43:44.551Z,41.00
2017-07-04T07:46:13.346Z,40.00
2017-07-04T07:48:41.742Z,39.60
2017-07-04T07:51:10.045Z,40.80
2017-07-04T07:53:38.292Z,40.30
2017-07-04T07:56:06.640Z,39.80
2017-07-04T07:58:35.724Z,40.30
2017-07-04T08:01:05.106Z,41.20
2017-07-04T08:03:33.414Z,41.20
2017-07-04T08:06:01.718Z,41.10
2017-07-04T08:08:29.968Z,40.90
2017-07-04T08:10:58.594Z,41.90
2017-07-04T08:13:26.844Z,41.20
2017-07-04T08:15:55.146Z,41.30
2017-07-04T08:18:23.437Z,42.40
2017-07-04T08:20:51.693Z,41.90
2017-07-04T08:23:19.955Z,41.50
2017-07-04T08:25:48.236Z,41.00
2017-07-04T08:28:16.537Z,41.00
2017-07-04T08:30:44.881Z,40.70
2017-07-04T08:33:13.193Z,40.50
2017-07-04T08:35:41.558Z,39.00
2017-07-04T08:38:09.958Z,39.70
2017-07-04T08:40:38.389Z,39.90
2017-07-04T08:43:06.663Z,39.50
2017-07-04T08:45:34.956Z,39.00
2017-07-04T08:48:03.524Z,38.60
2017-07-04T08:50:31.762Z,35.90
2017-07-04T08:53:00.781Z,35.60
2017-07-04T08:55:29.121Z,35.60
2017-07-04T08:57:57.369Z,36.50
2017-07-04T09:00:25.609Z,36.70
2017-07-04T09:02:53.870Z,36.50
2017-07-04T09:05:22.873Z,35.00
2017-07-04T09:07:51.180Z,35.00
2017-07-04T09:10:19.437Z,34.80
2017-07-04T09:12:47.721Z,34.20
2017-07-04T09:15:15.993Z,35.10
2017-07-04T09:17:44.229Z,34.60
2017-07-04T09:20:13.247Z,35.00
2017-07-04T09:22:41.544Z,34.40
2017-07-04T09:25:09.784Z,33.40
2017-07-04T09:27:38.097Z,33.60
2017-07-04T09:30:06.341Z,32.80
2017-07-04T09:32:34.669Z,32.00
2017-07-04T09:35:03.016Z,31.30
2017-07-04T09:37:31.252Z,31.30
2017-07-04T09:40:00.315Z,32.30
2017-07-04T09:42:28.545Z,32.30
2017-07-04T09:44:56.792Z,32.40
2017-07-04T09:47:25.797Z,32.10
2017-07-04T09:49:54.823Z,30.70
2017-07-04T09:52:23.073Z,30.70
2017-07-04T09:54:52.036Z,29.40
2017-07-04T09:57:20.381Z,28.90
2017-07-04T09:59:48.676Z,29.20
2017-07-04T10:02:17.026Z,28.60
2017-07-04T10:04:45.288Z,28.00
2017-07-04T10:07:13.587Z,27.30
2017-07-04T10:09:41.889Z,26.90
2017-07-04T10:12:10.345Z,27.00
2017-07-04T10:14:38.705Z,25.70
2017-07-04T10:17:06.945Z,25.20
2017-07-04T10:19:35.984Z,24.70
2017-07-04T10:22:04.215Z,24.70
2017-07-04T10:24:33.250Z,25.10
2017-07-04T10:27:01.477Z,25.10
2017-07-04T10:29:30.516Z,24.50
2017-07-04T10:31:58.949Z,24.40
2017-07-04T10:34:27.170Z,24.70
2017-07-04T10:36:55.414Z,23.90
2017-07-04T10:39:23.646Z,23.20
2017-07-04T10:41:51.919Z,22.10
2017-07-04T10:44:20.481Z,21.80
2017-07-04T10:46:48.725Z,21.20
2017-07-04T10:49:17.012Z,20.90
2017-07-04T10:51:45.209Z,19.70
2017-07-04T10:54:13.478Z,19.20
2017-07-04T10:56:41.729Z,18.80
2017-07-04T10:59:10.029Z,18.90
2017-07-04T11:01:38.397Z,18.40
2017-07-04T11:04:06.630Z,18.40
2017-07-04T11:06:35.691Z,19.20
2017-07-04T11:09:03.910Z,18.80
2017-07-04T11:11:33.037Z,17.90
2017-07-04T11:14:01.273Z,17.90
2017-07-04T11:16:30.337Z,19.10
2017-07-04T11:18:58.581Z,19.10
2017-07-04T11:21:26.897Z,20.00
2017-07-04T11:23:55.133Z,21.70
2017-07-04T11:26:23.388Z,23.50
2017-07-04T11:28:51.628Z,24.80
2017-07-04T11:31:19.861Z,26.40
2017-07-04T11:33:48.121Z,27.50
2017-07-04T11:36:16.416Z,27.40
2017-07-04T11:38:44.674Z,26.20
2017-07-04T11:41:12.913Z,24.80
2017-07-04T11:43:41.955Z,22.60
2017-07-04T11:46:10.194Z,22.20
2017-07-04T11:48:39.287Z,22.80
2017-07-04T11:51:08.413Z,22.50
2017-07-04T11:53:36.657Z,22.50
2017-07-04T11:56:05.666Z,23.20
2017-07-04T11:58:33.998Z,23.20
2017-07-04T12:01:02.220Z,23.40
2017-07-04T12:03:30.486Z,24.10
2017-07-04T12:05:58.729Z,24.60
2017-07-04T12:08:27.146Z,25.10
2017-07-04T12:10:56.122Z,26.40
2017-07-04T12:13:25.141Z,27.20
2017-07-04T12:15:53.373Z,27.20
2017-07-04T12:18:21.635Z,27.90
2017-07-04T12:20:49.976Z,29.00
2017-07-04T12:23:18.224Z,29.80
2017-07-04T12:25:46.490Z,29.60
2017-07-04T12:28:14.746Z,29.60
2017-07-04T12:30:43.060Z,29.80
2017-07-04T12:33:11.433Z,30.40
2017-07-04T12:35:39.734Z,30.20
2017-07-04T12:38:07.966Z,29.90
2017-07-04T12:40:37.071Z,31.80
2017-07-04T12:43:06.102Z,30.50
2017-07-04T12:45:34.416Z,30.50
2017-07-04T12:48:02.823Z,31.20
2017-07-04T12:50:31.949Z,32.10
2017-07-04T12:53:00.217Z,32.10
2017-07-04T12:55:28.471Z,32.30
2017-07-04T12:57:56.774Z,33.50
2017-07-04T13:00:25.042Z,34.00
2017-07-04T13:02:53.377Z,33.70
2017-07-04T13:05:22.401Z,33.50
2017-07-04T13:07:50.765Z,33.40
2017-07-04T13:10:20.002Z,33.40
2017-07-04T13:12:48.607Z,33.30
2017-07-04T13:15:16.926Z,33.60
2017-07-04T13:17:45.948Z,33.60
2017-07-04T13:20:14.226Z,33.60
2017-07-04T13:22:42.529Z,34.70
2017-07-04T13:25:10.876Z,34.40
2017-07-04T13:27:39.106Z,34.30
2017-07-04T13:30:08.421Z,34.90
2017-07-04T13:32:37.283Z,34.80
2017-07-04T13:35:08.006Z,35.20
2017-07-04T13:37:36.736Z,35.10
2017-07-04T13:40:06.687Z,34.60
2017-07-04T13:42:36.245Z,34.40
2017-07-04T13:45:04.602Z,34.40
2017-07-04T13:47:32.846Z,34.50
2017-07-04T13:50:01.082Z,35.20
2017-07-04T13:52:29.354Z,34.40
2017-07-04T13:54:57.588Z,34.80
2017-07-04T13:57:25.841Z,34.80
2017-07-04T13:59:54.244Z,35.10
2017-07-04T14:02:22.737Z,34.80
2017-07-04T14:04:50.966Z,35.00
2017-07-04T14:07:19.225Z,34.80
2017-07-04T14:09:47.679Z,34.80
2017-07-04T14:12:16.755Z,35.60
2017-07-04T14:14:45.793Z,35.00
2017-07-04T14:17:14.096Z,35.00
2017-07-04T14:19:42.383Z,35.10
2017-07-04T14:22:10.742Z,35.40
2017-07-04T14:24:39.033Z,35.60
2017-07-04T14:27:07.285Z,37.10
2017-07-04T14:29:35.563Z,36.30
2017-07-04T14:32:03.858Z,35.50
2017-07-04T14:34:32.159Z,35.20
2017-07-04T14:37:00.444Z,35.40
2017-07-04T14:39:29.481Z,36.90
2017-07-04T14:41:57.812Z,36.70
2017-07-04T14:44:26.049Z,37.00
2017-07-04T14:46:54.384Z,36.40
2017-07-04T14:49:23.395Z,36.70
2017-07-04T14:51:51.633Z,36.70
2017-07-04T14:54:19.882Z,36.70
2017-07-04T14:56:48.258Z,36.60
2017-07-04T14:59:16.633Z,36.60
2017-07-04T15:01:44.870Z,36.90
2017-07-04T15:04:13.202Z,38.10
2017-07-04T15:06:41.430Z,36.90
2017-07-04T15:09:09.682Z,37.60
2017-07-04T15:11:37.920Z,37.30
2017-07-04T15:14:06.169Z,36.70
2017-07-04T15:16:34.495Z,36.80
2017-07-04T15:19:03.525Z,36.90
2017-07-04T15:21:31.817Z,36.90
2017-07-04T15:24:00.137Z,37.40
2017-07-04T15:26:29.207Z,36.90
2017-07-04T15:28:57.465Z,36.90
2017-07-04T15:31:25.732Z,37.10
2017-07-04T15:33:54.030Z,37.80
2017-07-04T15:36:22.254Z,37.40
2017-07-04T15:38:50.608Z,37.00
2017-07-04T15:41:19.051Z,37.20
2017-07-04T15:43:47.297Z,37.80
2017-07-04T15:46:15.599Z,38.30
2017-07-04T15:48:43.861Z,38.30
2017-07-04T15:51:12.094Z,37.70
2017-07-04T15:53:41.178Z,37.90
2017-07-04T15:56:09.441Z,37.90
2017-07-04T15:58:37.861Z,37.60
2017-07-04T16:01:06.089Z,37.80
2017-07-04T16:03:34.317Z,37.80
2017-07-04T16:06:02.573Z,37.90
2017-07-04T16:08:31.594Z,37.70
2017-07-04T16:10:59.880Z,37.70
2017-07-04T16:13:28.126Z,37.50
2017-07-04T16:15:57.299Z,37.50
2017-07-04T16:18:25.526Z,37.50
2017-07-04T16:20:54.036Z,37.70
2017-07-04T16:23:22.284Z,38.00
2017-07-04T16:25:50.578Z,37.60
2017-07-04T16:28:18.816Z,37.70
2017-07-04T16:30:47.073Z,37.80
2017-07-04T16:33:16.083Z,37.80
2017-07-04T16:35:44.438Z,38.40
2017-07-04T16:38:12.649Z,38.40
2017-07-04T16:40:40.926Z,38.40
2017-07-04T16:43:09.158Z,37.60
2017-07-04T16:45:38.223Z,38.20
2017-07-04T16:48:06.570Z,38.00
2017-07-04T16:50:34.857Z,37.90
2017-07-04T16:53:03.179Z,38.20
2017-07-04T16:55:31.718Z,38.40
2017-07-04T16:58:00.049Z,38.10
2017-07-04T17:00:28.315Z,38.00
2017-07-04T17:02:57.376Z,37.80
2017-07-04T17:05:25.630Z,37.80
2017-07-04T17:07:53.893Z,38.10
2017-07-04T17:10:22.194Z,38.50
2017-07-04T17:12:50.504Z,38.70
2017-07-04T17:15:19.036Z,39.20
2017-07-04T17:17:47.289Z,39.20
2017-07-04T17:20:15.555Z,39.60
2017-07-04T17:22:44.720Z,39.60
2017-07-04T17:25:13.219Z,39.50
2017-07-04T17:27:41.477Z,39.90
2017-07-04T17:30:09.721Z,39.40
2017-07-04T17:32:38.078Z,39.70
2017-07-04T17:35:06.399Z,39.60
2017-07-04T17:37:34.769Z,39.50
2017-07-04T17:40:03.030Z,39.50
2017-07-04T17:42:31.535Z,39.00
2017-07-04T17:44:59.862Z,38.70
2017-07-04T17:47:28.106Z,39.40
2017-07-04T17:49:57.137Z,39.20
2017-07-04T17:52:26.244Z,38.90
2017-07-04T17:54:54.652Z,38.90
2017-07-04T17:57:23.007Z,39.20
2017-07-04T17:59:51.293Z,39.20
2017-07-04T18:02:19.635Z,38.90
2017-07-04T18:04:47.891Z,39.00
2017-07-04T18:07:16.899Z,38.90
2017-07-04T18:09:45.222Z,38.90
2017-07-04T18:12:13.519Z,38.90
2017-07-04T18:14:41.741Z,39.00
2017-07-04T18:17:10.058Z,39.10
2017-07-04T18:19:38.365Z,39.20
2017-07-04T18:22:07.381Z,40.00
2017-07-04T18:24:35.682Z,39.90
2017-07-04T18:27:03.921Z,40.20
2017-07-04T18:29:32.183Z,40.40
2017-07-04T18:32:00.643Z,40.20
2017-07-04T18:34:28.920Z,40.30
2017-07-04T18:36:57.180Z,40.70
2017-07-04T18:39:25.503Z,40.90
2017-07-04T18:41:53.764Z,41.10
2017-07-04T18:44:22.006Z,41.20
2017-07-04T18:46:50.272Z,41.20
2017-07-04T18:49:18.532Z,40.70
2017-07-04T18:51:46.777Z,41.30
2017-07-04T18:54:15.181Z,41.30
2017-07-04T18:56:43.495Z,41.50
2017-07-04T18:59:11.733Z,41.60
2017-07-04T19:01:40.032Z,41.60
2017-07-04T19:04:08.296Z,41.90
2017-07-04T19:06:36.533Z,42.60
2017-07-04T19:09:04.882Z,42.40
2017-07-04T19:11:33.172Z,42.00
2017-07-04T19:14:02.175Z,42.30
2017-07-04T19:16:31.299Z,42.30
2017-07-04T19:18:59.590Z,42.30
2017-07-04T19:21:27.981Z,42.60
2017-07-04T19:23:56.209Z,42.60
2017-07-04T19:26:24.528Z,42.50
2017-07-04T19:28:53.243Z,43.00
2017-07-04T19:31:22.268Z,43.40
2017-07-04T19:33:50.505Z,43.40
2017-07-04T19:36:19.565Z,44.00
2017-07-04T19:38:48.095Z,44.30
2017-07-04T19:41:16.443Z,43.40
2017-07-04T19:43:44.710Z,43.50
2017-07-04T19:46:12.957Z,43.40
2017-07-04T19:48:41.353Z,43.50
2017-07-04T19:51:09.765Z,43.60
2017-07-04T19:53:38.058Z,49.30
2017-07-04T19:56:07.128Z,46.50
2017-07-04T19:58:35.576Z,46.40
2017-07-04T20:01:03.873Z,47.00
2017-07-04T20:03:32.130Z,48.50
2017-07-04T20:06:00.377Z,47.60
2017-07-04T20:08:28.701Z,48.10
2017-07-04T20:10:56.939Z,48.90
2017-07-04T20:13:25.189Z,49.60
2017-07-04T20:15:53.474Z,49.30
2017-07-04T20:18:21.861Z,48.50
2017-07-04T20:20:50.093Z,48.60
2017-07-04T20:23:18.342Z,49.90
2017-07-04T20:25:46.578Z,50.00
2017-07-04T20:28:14.879Z,49.70
2017-07-04T20:30:43.113Z,50.20
2017-07-04T20:33:12.129Z,50.00
2017-07-04T20:35:40.363Z,50.00
2017-07-04T20:38:08.610Z,49.90
2017-07-04T20:40:36.851Z,49.50
2017-07-04T20:43:05.098Z,49.50
2017-07-04T20:45:34.106Z,50.50
2017-07-04T20:48:02.419Z,50.10
2017-07-04T20:50:30.727Z,50.20
2017-07-04T20:52:58.980Z,49.90
2017-07-04T20:55:27.220Z,49.60
2017-07-04T20:57:55.472Z,50.10
2017-07-04T21:00:24.505Z,49.80
2017-07-04T21:02:52.774Z,49.70
2017-07-04T21:05:21.159Z,49.80
2017-07-04T21:07:49.427Z,50.30
2017-07-04T21:10:17.701Z,50.30
2017-07-04T21:12:46.032Z,49.80
2017-07-04T21:15:14.270Z,50.30
2017-07-04T21:17:42.539Z,50.20
2017-07-04T21:20:10.810Z,49.90
2017-07-04T21:22:39.069Z,50.20
2017-07-04T21:25:07.389Z,50.10
2017-07-04T21:27:35.622Z,50.20
2017-07-04T21:30:03.950Z,50.20
2017-07-04T21:32:32.301Z,50.70
2017-07-04T21:35:00.664Z,50.50
2017-07-04T21:37:28.996Z,50.70
2017-07-04T21:39:57.246Z,50.40
2017-07-04T21:42:25.483Z,50.70
2017-07-04T21:44:53.735Z,50.80
2017-07-04T21:47:22.794Z,50.80
2017-07-04T21:49:51.052Z,50.80
2017-07-04T21:52:19.375Z,50.70
2017-07-04T21:54:48.393Z,51.30
2017-07-04T21:57:16.631Z,50.70
2017-07-04T21:59:44.961Z,50.90
2017-07-04T22:02:13.275Z,50.90
2017-07-04T22:04:41.523Z,51.30
2017-07-04T22:07:09.755Z,51.00
2017-07-04T22:09:38.990Z,51.30
2017-07-04T22:12:07.226Z,51.30
2017-07-04T22:14:36.255Z,51.40
2017-07-04T22:17:04.491Z,51.30
2017-07-04T22:19:33.558Z,52.30
2017-07-04T22:22:01.806Z,52.30
2017-07-04T22:24:30.046Z,51.90
2017-07-04T22:26:59.061Z,52.00
2017-07-04T22:29:27.289Z,52.00
2017-07-04T22:31:55.542Z,52.10
2017-07-04T22:34:23.773Z,52.30
2017-07-04T22:36:52.076Z,52.10
2017-07-04T22:39:20.319Z,52.10
2017-07-04T22:41:48.571Z,52.50
2017-07-04T22:44:16.802Z,52.70
2017-07-04T22:46:45.049Z,53.10
2017-07-04T22:49:13.282Z,53.00
2017-07-04T22:51:41.557Z,52.80
2017-07-04T22:54:09.810Z,53.00
2017-07-04T22:56:38.047Z,53.00
2017-07-04T22:59:06.367Z,52.80
2017-07-04T23:01:34.605Z,52.90
2017-07-04T23:04:02.841Z,53.00
2017-07-04T23:06:31.113Z,52.60
2017-07-04T23:08:59.655Z,52.80
2017-07-04T23:11:28.033Z,52.70
2017-07-04T23:13:56.331Z,52.60
2017-07-04T23:16:24.570Z,52.90
2017-07-04T23:18:52.827Z,52.90
2017-07-04T23:21:21.958Z,53.20
2017-07-04T23:23:50.218Z,53.20
2017-07-04T23:26:18.448Z,53.50
2017-07-04T23:28:46.696Z,53.40
2017-07-04T23:31:14.948Z,53.60
2017-07-04T23:33:43.204Z,53.60
2017-07-04T23:36:11.553Z,53.90
2017-07-04T23:38:39.781Z,53.60
2017-07-04T23:41:08.229Z,54.10
2017-07-04T23:43:37.229Z,54.70
2017-07-04T23:46:05.541Z,54.20
2017-07-04T23:48:33.814Z,53.90
2017-07-04T23:51:02.141Z,54.10
2017-07-04T23:53:31.166Z,54.30
2017-07-04T23:55:59.409Z,54.30
2017-07-04T23:58:28.544Z,54.10
